Time,TemperatureF,DewpointF,PressureIn,WindDirection,WindDirectionDegrees,WindSpeedMPH,WindSpeedGustMPH,Humidity,HourlyPrecipIn,Conditions,Clouds,dailyrainin,SolarRadiationWatts/m^2,SoftwareType,DateUTC
2013-05-10 00:02:00,73.0,70.0,30.06,NE,56,4.0,9.0,90,0.01,,,0.22,0.000000,,2013-05-10 10:02:00,
2013-05-10 00:12:00,73.0,70.0,30.06,NE,56,4.0,9.0,90,0.01,,,0.22,0.000000,,2013-05-10 10:12:00,
2013-05-10 00:33:00,73.0,70.0,30.05,SW,228,1.0,6.0,90,0.00,,,0.22,0.000000,,2013-05-10 10:33:00,
2013-05-10 00:42:00,73.0,70.0,30.05,SW,228,1.0,6.0,90,0.00,,,0.22,0.000000,,2013-05-10 10:42:00,
2013-05-10 00:52:00,73.0,70.0,30.05,SW,228,1.0,6.0,90,0.00,,,0.22,0.000000,,2013-05-10 10:52:00,
2013-05-10 01:02:00,73.0,70.0,30.05,SW,228,1.0,6.0,90,0.00,,,0.22,0.000000,,2013-05-10 11:02:00,
2013-05-10 01:12:00,73.0,70.0,30.05,SW,228,1.0,6.0,90,0.00,,,0.22,0.000000,,2013-05-10 11:12:00,
2013-05-10 03:42:00,73.0,70.0,30.00,NE,54,3.0,5.0,89,-99.99,,,0.22,0.000000,,2013-05-10 13:42:00,
2013-05-10 03:52:00,73.0,70.0,30.00,NE,54,3.0,5.0,89,-99.99,,,0.22,0.000000,,2013-05-10 13:52:00,
2013-05-10 04:02:00,73.0,70.0,30.00,NE,54,3.0,5.0,89,-99.99,,,0.22,0.000000,,2013-05-10 14:02:00,
2013-05-10 04:11:00,73.0,70.0,30.00,NE,54,3.0,5.0,89,-99.99,,,0.22,0.000000,,2013-05-10 14:11:00,
2013-05-10 04:15:00,-999.0,-99.9,30.00,ENE,58,2.0,4.0,90,0.00,,,0.22,0.000000,,2013-05-10 14:15:00,
2013-05-10 04:42:00,73.0,70.0,30.00,ENE,58,2.0,4.0,90,0.00,,,0.22,0.000000,,2013-05-10 14:42:00,
2013-05-10 04:52:00,73.0,70.0,30.00,ENE,58,2.0,4.0,90,0.00,,,0.22,0.000000,,2013-05-10 14:52:00,
2013-05-10 05:01:00,73.0,70.0,30.00,ENE,58,2.0,4.0,90,0.00,,,0.22,0.000000,,2013-05-10 15:01:00,
2013-05-10 05:42:00,72.0,69.0,30.00,East,96,1.0,6.0,90,0.00,,,0.22,0.000000,,2013-05-10 15:42:00,
2013-05-10 05:53:00,72.0,69.0,30.00,East,96,1.0,6.0,90,0.00,,,0.22,0.000000,,2013-05-10 15:53:00,
2013-05-10 06:02:00,72.0,69.0,30.00,East,96,1.0,6.0,90,0.00,,,0.22,0.000000,,2013-05-10 16:02:00,
2013-05-10 06:12:00,72.0,69.0,30.00,East,96,1.0,6.0,90,0.00,,,0.22,0.000000,,2013-05-10 16:12:00,
2013-05-10 06:43:00,71.0,68.0,30.03,ESE,112,0.0,6.0,89,0.00,,,0.22,3.000000,,2013-05-10 16:43:00,
2013-05-10 06:52:00,71.0,68.0,30.03,ESE,112,0.0,6.0,89,0.00,,,0.22,3.000000,,2013-05-10 16:52:00,
2013-05-10 07:02:00,71.0,68.0,30.03,ESE,112,0.0,6.0,89,0.00,,,0.22,3.000000,,2013-05-10 17:02:00,
2013-05-10 07:12:00,71.0,68.0,30.03,ESE,112,0.0,6.0,89,0.00,,,0.22,3.000000,,2013-05-10 17:12:00,
2013-05-10 07:42:00,76.0,70.0,30.04,ESE,119,2.0,3.0,82,0.00,,,0.22,87.000000,,2013-05-10 17:42:00,
2013-05-10 07:52:00,76.0,70.0,30.04,ESE,119,2.0,3.0,82,0.00,,,0.22,87.000000,,2013-05-10 17:52:00,
2013-05-10 08:10:00,-999.0,-99.9,30.04,ESE,119,2.0,3.0,82,0.00,,,0.22,87.000000,,2013-05-10 18:10:00,
2013-05-10 08:43:00,79.0,70.0,30.05,SSE,148,5.0,7.0,75,0.00,,,0.22,231.000000,,2013-05-10 18:43:00,
2013-05-10 08:54:00,79.0,70.0,30.05,SSE,148,5.0,7.0,75,0.00,,,0.22,231.000000,,2013-05-10 18:54:00,
2013-05-10 09:02:00,79.0,70.0,30.05,SSE,148,5.0,7.0,75,0.00,,,0.22,231.000000,,2013-05-10 19:02:00,
2013-05-10 09:11:00,79.0,70.0,30.05,SSE,148,5.0,7.0,75,0.00,,,0.22,231.000000,,2013-05-10 19:11:00,
2013-05-10 09:42:00,81.0,70.0,30.06,SSE,162,5.0,9.0,70,0.00,,,0.22,446.000000,,2013-05-10 19:42:00,
2013-05-10 09:52:00,81.0,70.0,30.06,SSE,162,5.0,9.0,70,0.00,,,0.22,446.000000,,2013-05-10 19:52:00,
2013-05-10 10:01:00,81.0,70.0,30.06,SSE,162,5.0,9.0,70,0.00,,,0.22,446.000000,,2013-05-10 20:01:00,
2013-05-10 10:11:00,81.0,70.0,30.06,SSE,162,5.0,9.0,70,0.00,,,0.22,446.000000,,2013-05-10 20:11:00,
2013-05-10 10:42:00,83.0,71.0,30.06,SW,214,8.0,11.0,68,0.00,,,0.22,853.000000,,2013-05-10 20:42:00,
2013-05-10 10:52:00,83.0,71.0,30.06,SW,214,8.0,11.0,68,0.00,,,0.22,853.000000,,2013-05-10 20:52:00,
2013-05-10 11:01:00,83.0,71.0,30.06,SW,214,8.0,11.0,68,0.00,,,0.22,853.000000,,2013-05-10 21:01:00,
2013-05-10 11:11:00,83.0,71.0,30.06,SW,214,8.0,11.0,68,0.00,,,0.22,853.000000,,2013-05-10 21:11:00,
2013-05-10 11:43:00,80.0,72.0,30.06,SW,235,7.0,13.0,76,0.00,,,0.22,304.000000,,2013-05-10 21:43:00,
2013-05-10 11:52:00,80.0,72.0,30.06,SW,235,7.0,13.0,76,0.00,,,0.22,304.000000,,2013-05-10 21:52:00,
2013-05-10 12:02:00,80.0,72.0,30.06,SW,235,7.0,13.0,76,0.00,,,0.22,304.000000,,2013-05-10 22:02:00,
2013-05-10 12:12:00,80.0,72.0,30.06,SW,235,7.0,13.0,76,0.00,,,0.22,304.000000,,2013-05-10 22:12:00,
2013-05-10 12:42:00,80.0,71.0,30.05,SW,231,6.0,10.0,75,0.00,,,0.22,325.000000,,2013-05-10 22:42:00,
2013-05-10 12:52:00,80.0,71.0,30.05,SW,231,6.0,10.0,75,0.00,,,0.22,325.000000,,2013-05-10 22:52:00,
2013-05-10 13:02:00,80.0,71.0,30.05,SW,231,6.0,10.0,75,0.00,,,0.22,325.000000,,2013-05-10 23:02:00,
2013-05-10 13:12:00,80.0,71.0,30.05,SW,231,6.0,10.0,75,0.00,,,0.22,325.000000,,2013-05-10 23:12:00,
2013-05-10 13:42:00,80.0,70.0,30.03,SSE,152,4.0,10.0,72,0.00,,,0.22,299.000000,,2013-05-10 23:42:00,
2013-05-10 13:52:00,80.0,70.0,30.03,SSE,152,4.0,10.0,72,0.00,,,0.22,299.000000,,2013-05-10 23:52:00,
2013-05-10 14:01:00,80.0,70.0,30.03,SSE,152,4.0,10.0,72,0.00,,,0.22,299.000000,,2013-05-11 00:01:00,
2013-05-10 14:11:00,80.0,70.0,30.03,SSE,152,4.0,10.0,72,0.00,,,0.22,299.000000,,2013-05-11 00:11:00,
2013-05-10 14:42:00,81.0,71.0,30.02,ESE,102,3.0,7.0,71,0.00,,,0.22,273.000000,,2013-05-11 00:42:00,
2013-05-10 14:52:00,81.0,71.0,30.02,ESE,102,3.0,7.0,71,0.00,,,0.22,273.000000,,2013-05-11 00:52:00,
2013-05-10 15:01:00,81.0,71.0,30.02,ESE,102,3.0,7.0,71,0.00,,,0.22,273.000000,,2013-05-11 01:01:00,
2013-05-10 15:11:00,81.0,71.0,30.02,ESE,102,3.0,7.0,71,0.00,,,0.22,273.000000,,2013-05-11 01:11:00,
2013-05-10 15:32:00,80.0,70.0,30.01,SW,230,3.0,7.0,71,0.00,,,0.22,192.000000,,2013-05-11 01:32:00,
2013-05-10 15:42:00,80.0,70.0,30.01,SW,230,3.0,7.0,71,0.00,,,0.22,192.000000,,2013-05-11 01:42:00,
2013-05-10 15:52:00,80.0,70.0,30.01,SW,230,3.0,7.0,71,0.00,,,0.22,192.000000,,2013-05-11 01:52:00,
2013-05-10 16:02:00,80.0,70.0,30.01,SW,230,3.0,7.0,71,0.00,,,0.22,192.000000,,2013-05-11 02:02:00,
2013-05-10 16:11:00,80.0,70.0,30.01,SW,230,3.0,7.0,71,0.00,,,0.22,192.000000,,2013-05-11 02:11:00,
2013-05-10 16:42:00,78.0,72.0,30.00,ESE,106,6.0,8.0,83,0.00,,,0.22,118.000000,,2013-05-11 02:42:00,
2013-05-10 16:52:00,78.0,72.0,30.00,ESE,106,6.0,8.0,83,0.00,,,0.22,118.000000,,2013-05-11 02:52:00,
2013-05-10 17:01:00,78.0,72.0,30.00,ESE,106,6.0,8.0,83,0.00,,,0.22,118.000000,,2013-05-11 03:01:00,
2013-05-10 17:11:00,78.0,72.0,30.00,ESE,106,6.0,8.0,83,0.00,,,0.22,118.000000,,2013-05-11 03:11:00,
2013-05-10 17:43:00,78.0,72.0,30.00,ESE,120,4.0,9.0,83,0.00,,,0.22,157.000000,,2013-05-11 03:43:00,
2013-05-10 17:53:00,78.0,72.0,30.00,ESE,120,4.0,9.0,83,0.00,,,0.22,157.000000,,2013-05-11 03:53:00,
2013-05-10 18:02:00,78.0,72.0,30.00,ESE,120,4.0,9.0,83,0.00,,,0.22,157.000000,,2013-05-11 04:02:00,
2013-05-10 18:12:00,78.0,72.0,30.00,ESE,120,4.0,9.0,83,0.00,,,0.22,157.000000,,2013-05-11 04:12:00,
2013-05-10 18:43:00,78.0,73.0,30.01,SE,130,5.0,8.0,84,0.00,,,0.22,113.000000,,2013-05-11 04:43:00,
2013-05-10 18:52:00,78.0,73.0,30.01,SE,130,5.0,8.0,84,0.00,,,0.22,113.000000,,2013-05-11 04:52:00,
2013-05-10 19:02:00,78.0,73.0,30.01,SE,130,5.0,8.0,84,0.00,,,0.22,113.000000,,2013-05-11 05:02:00,
2013-05-10 19:11:00,78.0,73.0,30.01,SE,130,5.0,8.0,84,0.00,,,0.22,113.000000,,2013-05-11 05:11:00,
2013-05-10 19:32:00,76.0,72.0,30.03,SE,125,4.0,7.0,86,0.00,,,0.22,14.000000,,2013-05-11 05:32:00,
2013-05-10 19:42:00,76.0,72.0,30.03,SE,125,4.0,7.0,86,0.00,,,0.22,14.000000,,2013-05-11 05:42:00,
2013-05-10 19:52:00,76.0,72.0,30.03,SE,125,4.0,7.0,86,0.00,,,0.22,14.000000,,2013-05-11 05:52:00,
2013-05-10 20:02:00,76.0,72.0,30.03,SE,125,4.0,7.0,86,0.00,,,0.22,14.000000,,2013-05-11 06:02:00,
2013-05-10 20:12:00,76.0,72.0,30.03,SE,125,4.0,7.0,86,0.00,,,0.22,14.000000,,2013-05-11 06:12:00,
2013-05-10 20:42:00,76.0,72.0,30.05,ESE,121,4.0,5.0,88,0.00,,,0.22,0.000000,,2013-05-11 06:42:00,
2013-05-10 20:52:00,76.0,72.0,30.05,ESE,121,4.0,5.0,88,0.00,,,0.22,0.000000,,2013-05-11 06:52:00,
2013-05-10 21:01:00,76.0,72.0,30.05,ESE,121,4.0,5.0,88,0.00,,,0.22,0.000000,,2013-05-11 07:01:00,
2013-05-10 21:11:00,76.0,72.0,30.05,ESE,121,4.0,5.0,88,0.00,,,0.22,0.000000,,2013-05-11 07:11:00,
2013-05-10 21:42:00,75.0,71.0,30.06,ESE,118,5.0,7.0,88,0.00,,,0.02,0.000000,,2013-05-11 07:42:00,
2013-05-10 21:52:00,75.0,71.0,30.06,ESE,118,5.0,7.0,88,0.00,,,0.02,0.000000,,2013-05-11 07:52:00,
2013-05-10 22:01:00,75.0,71.0,30.06,ESE,118,5.0,7.0,88,0.00,,,0.02,0.000000,,2013-05-11 08:01:00,
2013-05-10 22:12:00,75.0,71.0,30.06,ESE,118,5.0,7.0,88,0.00,,,0.02,0.000000,,2013-05-11 08:12:00,
2013-05-10 22:42:00,74.0,70.0,30.08,ESE,113,5.0,7.0,88,0.00,,,0.01,0.000000,,2013-05-11 08:42:00,
2013-05-10 22:52:00,74.0,70.0,30.08,ESE,113,5.0,7.0,88,0.00,,,0.01,0.000000,,2013-05-11 08:52:00,
2013-05-10 23:01:00,74.0,70.0,30.08,ESE,113,5.0,7.0,88,0.00,,,0.01,0.000000,,2013-05-11 09:01:00,
2013-05-10 23:11:00,74.0,70.0,30.08,ESE,113,5.0,7.0,88,0.00,,,0.01,0.000000,,2013-05-11 09:11:00,
2013-05-10 23:42:00,75.0,70.0,30.08,ESE,102,4.0,7.0,85,0.00,,,0.00,0.000000,,2013-05-11 09:42:00,
2013-05-10 23:52:00,75.0,70.0,30.08,ESE,102,4.0,7.0,85,0.00,,,0.00,0.000000,,2013-05-11 09:52:00,